sim
Sign-in with your pilot id or email,
or register
Callsign
Passwort

Schedule Details

Flight Number: OEO4015
Departure: Leipzig Halle Airport (EDDP) at 14:35
Arrival: Munich Airport (EDDM) at 15:45

Weather Information
Getting current METAR information for EDDP 201650Z 04009KT CAVOK 21/07 Q1017 NOSIG
Getting current METAR information for EDDM 201650Z 04003KT 350V050 CAVOK 20/11 Q1015 NOSIG

Schedule Frequency

Route Map